createdAt,value
2022-10-26T00:02:05.086Z,101385.84
2022-10-26T00:04:34.614Z,101379.38
2022-10-26T00:07:06.585Z,101368.78
2022-10-26T00:09:37.804Z,101375.31
2022-10-26T00:12:11.271Z,101378.56
2022-10-26T00:14:40.718Z,101379.78
2022-10-26T00:17:08.541Z,101385.47
2022-10-26T00:19:36.040Z,101385.44
2022-10-26T00:22:05.866Z,101397.25
2022-10-26T00:24:37.127Z,101400.91
2022-10-26T00:27:06.685Z,101400.44
2022-10-26T00:29:39.508Z,101405.41
2022-10-26T00:32:12.723Z,101414.34
2022-10-26T00:34:44.636Z,101408.25
2022-10-26T00:37:12.963Z,101400.94
2022-10-26T00:39:42.894Z,101395.66
2022-10-26T00:42:16.217Z,101397.72
2022-10-26T00:44:47.837Z,101401.75
2022-10-26T00:47:28.447Z,101405.00
2022-10-26T00:50:04.723Z,101408.66
2022-10-26T00:52:39.330Z,101409.03
2022-10-26T00:55:11.655Z,101392.78
2022-10-26T00:57:42.583Z,101385.66
2022-10-26T01:00:10.192Z,101384.19
2022-10-26T01:02:37.866Z,101376.97
2022-10-26T01:05:09.379Z,101390.78
2022-10-26T01:07:37.569Z,101381.84
2022-10-26T01:10:07.590Z,101377.00
2022-10-26T01:12:37.567Z,101374.53
2022-10-26T01:15:05.138Z,101372.09
2022-10-26T01:17:43.232Z,101359.88
2022-10-26T01:20:32.362Z,101362.00
2022-10-26T01:23:12.240Z,101355.09
2022-10-26T01:26:03.229Z,101344.13
2022-10-26T01:28:33.653Z,101342.84
2022-10-26T01:31:07.156Z,101340.44
2022-10-26T01:33:39.843Z,101346.94
2022-10-26T01:36:09.306Z,101348.16
2022-10-26T01:38:55.607Z,101343.66
2022-10-26T01:41:23.321Z,101344.50
2022-10-26T01:43:57.095Z,101348.16
2022-10-26T01:46:26.402Z,101351.34
2022-10-26T01:49:00.448Z,101345.22
2022-10-26T01:51:29.566Z,101335.84
2022-10-26T01:54:02.486Z,101350.94
2022-10-26T01:56:34.760Z,101356.66
2022-10-26T01:59:23.821Z,101360.34
2022-10-26T02:01:52.161Z,101362.72
2022-10-26T02:04:22.734Z,101361.91
2022-10-26T02:06:53.048Z,101359.53
2022-10-26T02:09:30.457Z,101344.47
2022-10-26T02:12:01.500Z,101343.66
2022-10-26T02:14:37.949Z,101342.44
2022-10-26T02:17:22.602Z,101342.88
2022-10-26T02:20:03.431Z,101343.66
2022-10-26T02:22:45.425Z,101340.81
2022-10-26T02:25:16.325Z,101338.78
2022-10-26T02:27:50.428Z,101338.81
2022-10-26T02:30:18.305Z,101351.75
2022-10-26T02:32:50.806Z,101352.19
2022-10-26T02:35:25.491Z,101344.91
2022-10-26T02:37:54.533Z,101342.47
2022-10-26T02:40:24.130Z,101351.38
2022-10-26T02:42:53.008Z,101352.63
2022-10-26T02:45:26.289Z,101345.31
2022-10-26T02:47:54.997Z,101355.03
2022-10-26T02:50:29.728Z,101351.34
2022-10-26T02:53:33.481Z,101347.78
2022-10-26T02:56:07.457Z,101351.00
2022-10-26T02:58:38.031Z,101343.34
2022-10-26T03:01:08.389Z,101345.34
2022-10-26T03:03:37.606Z,101342.44
2022-10-26T03:06:10.767Z,101337.56
2022-10-26T03:08:38.016Z,101339.59
2022-10-26T03:11:08.400Z,101346.56
2022-10-26T03:13:35.731Z,101343.75
2022-10-26T03:16:04.565Z,101346.97
2022-10-26T03:18:40.271Z,101344.53
2022-10-26T03:21:10.240Z,101342.53
2022-10-26T03:23:43.124Z,101345.75
2022-10-26T03:26:13.323Z,101351.81
2022-10-26T03:28:44.579Z,101352.25
2022-10-26T03:31:14.576Z,101352.66
2022-10-26T03:33:45.151Z,101362.38
2022-10-26T03:36:14.972Z,101361.56
2022-10-26T03:38:44.750Z,101354.25
2022-10-26T03:41:15.045Z,101348.16
2022-10-26T03:43:44.852Z,101333.56
2022-10-26T03:46:12.352Z,101329.09
2022-10-26T03:48:39.651Z,101341.25
2022-10-26T03:51:09.117Z,101336.00
2022-10-26T03:53:36.408Z,101337.59
2022-10-26T03:56:09.664Z,101336.75
2022-10-26T03:58:37.175Z,101335.94
2022-10-26T04:01:04.636Z,101336.75
2022-10-26T04:03:37.706Z,101331.88
2022-10-26T04:06:07.246Z,101334.63
2022-10-26T04:08:34.869Z,101334.63
2022-10-26T04:11:04.501Z,101328.94
2022-10-26T04:13:34.637Z,101332.31
2022-10-26T04:16:04.910Z,101342.88
2022-10-26T04:18:35.791Z,101340.47
2022-10-26T04:21:03.235Z,101349.00
2022-10-26T04:23:33.276Z,101352.66
2022-10-26T04:26:09.944Z,101353.84
2022-10-26T04:28:37.811Z,101353.03
2022-10-26T04:31:05.171Z,101357.13
2022-10-26T04:33:35.701Z,101359.16
2022-10-26T04:36:05.770Z,101362.81
2022-10-26T04:38:33.054Z,101358.31
2022-10-26T04:41:03.781Z,101358.75
2022-10-26T04:43:34.743Z,101359.97
2022-10-26T04:46:06.794Z,101360.78
2022-10-26T04:48:35.855Z,101358.75
2022-10-26T04:51:03.384Z,101357.50
2022-10-26T04:53:33.593Z,101357.13
2022-10-26T04:56:03.722Z,101356.31
2022-10-26T04:58:31.312Z,101353.06
2022-10-26T05:01:01.588Z,101357.91
2022-10-26T05:03:30.234Z,101346.94
2022-10-26T05:06:06.314Z,101348.16
2022-10-26T05:08:33.559Z,101341.69
2022-10-26T05:11:03.554Z,101342.09
2022-10-26T05:13:33.545Z,101342.09
2022-10-26T05:16:06.193Z,101334.75
2022-10-26T05:18:41.054Z,101333.16
2022-10-26T05:21:09.061Z,101325.28
2022-10-26T05:23:36.455Z,101334.38
2022-10-26T05:26:06.572Z,101322.59
2022-10-26T05:28:36.132Z,101325.44
2022-10-26T05:31:03.608Z,101325.44
2022-10-26T05:33:36.018Z,101318.16
2022-10-26T05:36:06.544Z,101321.78
2022-10-26T05:38:36.407Z,101321.75
2022-10-26T05:41:06.857Z,101329.06
2022-10-26T05:43:37.551Z,101338.03
2022-10-26T05:46:11.268Z,101340.34
2022-10-26T05:48:38.791Z,101348.59
2022-10-26T05:51:06.153Z,101348.19
2022-10-26T05:53:33.561Z,101357.50
2022-10-26T05:56:05.033Z,101361.56
2022-10-26T05:58:35.765Z,101363.63
2022-10-26T06:01:08.073Z,101372.56
2022-10-26T06:03:47.305Z,101375.78
2022-10-26T06:06:16.837Z,101379.69
2022-10-26T06:08:44.374Z,101387.56
2022-10-26T06:11:14.169Z,101374.16
2022-10-26T06:13:44.885Z,101377.41
2022-10-26T06:16:23.575Z,101372.09
2022-10-26T06:19:05.904Z,101380.22
2022-10-26T06:21:39.361Z,101387.56
2022-10-26T06:24:21.300Z,101393.66
2022-10-26T06:26:53.015Z,101395.69
2022-10-26T06:29:42.895Z,101408.59
2022-10-26T06:33:01.286Z,101404.22
2022-10-26T06:35:40.962Z,101401.38
2022-10-26T06:38:17.507Z,101412.75
2022-10-26T06:40:53.683Z,101416.00
2022-10-26T06:43:32.005Z,101416.81
2022-10-26T06:46:17.022Z,101418.06
2022-10-26T06:49:15.430Z,101414.38
2022-10-26T06:51:57.874Z,101426.97
2022-10-26T06:54:47.309Z,101421.69
2022-10-26T06:57:16.627Z,101425.75
2022-10-26T07:00:00.705Z,101427.34
2022-10-26T07:02:41.619Z,101421.69
2022-10-26T07:05:13.024Z,101426.94
2022-10-26T07:07:51.023Z,101424.13
2022-10-26T07:10:21.267Z,101426.56
2022-10-26T07:12:57.480Z,101433.88
2022-10-26T07:15:26.252Z,101423.72
2022-10-26T07:17:55.894Z,101428.59
2022-10-26T07:20:26.167Z,101423.25
2022-10-26T07:22:57.907Z,101430.53
2022-10-26T07:25:30.432Z,101435.31
2022-10-26T07:27:59.453Z,101428.38
2022-10-26T07:30:30.683Z,101432.25
2022-10-26T07:33:07.427Z,101434.28
2022-10-26T07:35:38.631Z,101430.13
2022-10-26T07:38:16.426Z,101429.66
2022-10-26T07:40:46.902Z,101434.63
2022-10-26T07:43:22.250Z,101443.63
2022-10-26T07:45:55.479Z,101444.78
2022-10-26T07:48:28.796Z,101449.72
2022-10-26T07:50:56.453Z,101456.97
2022-10-26T07:53:27.948Z,101447.22
2022-10-26T07:56:00.173Z,101454.13
2022-10-26T07:58:28.327Z,101467.03
2022-10-26T08:01:08.438Z,101458.00
2022-10-26T08:03:44.259Z,101467.28
2022-10-26T08:06:16.728Z,101464.34
2022-10-26T08:08:47.751Z,101466.06
2022-10-26T08:11:21.750Z,101461.69
2022-10-26T08:13:53.624Z,101465.81
2022-10-26T08:16:31.403Z,101469.56
2022-10-26T08:19:04.817Z,101468.75
2022-10-26T08:21:39.463Z,101471.53
2022-10-26T08:24:13.378Z,101469.81
2022-10-26T08:26:44.681Z,101472.53
2022-10-26T08:29:17.398Z,101475.31
2022-10-26T08:31:50.871Z,101473.69
2022-10-26T08:34:29.715Z,101481.84
2022-10-26T08:37:06.276Z,101478.88
2022-10-26T08:39:41.633Z,101486.72
2022-10-26T08:42:20.358Z,101489.97
2022-10-26T08:44:58.516Z,101490.81
2022-10-26T08:47:34.460Z,101496.88
2022-10-26T08:50:15.884Z,101490.81
2022-10-26T08:52:52.483Z,101499.81
2022-10-26T08:55:28.662Z,101493.84
2022-10-26T08:58:12.011Z,101491.25
2022-10-26T09:00:41.559Z,101499.69
2022-10-26T09:03:18.937Z,101498.09
2022-10-26T09:06:13.197Z,101496.53
2022-10-26T09:08:59.067Z,101497.06
2022-10-26T09:11:53.827Z,101502.00
2022-10-26T09:14:36.083Z,101503.63
2022-10-26T09:17:23.822Z,101505.25
2022-10-26T09:20:26.854Z,101495.16
2022-10-26T09:23:34.751Z,101499.94
2022-10-26T09:26:13.746Z,101495.53
2022-10-26T09:28:46.863Z,101495.91
2022-10-26T09:31:17.391Z,101504.72
2022-10-26T09:33:47.456Z,101501.03
2022-10-26T09:36:21.500Z,101501.03
2022-10-26T09:39:05.525Z,101502.66
2022-10-26T09:41:38.377Z,101507.09
2022-10-26T09:44:17.999Z,101503.53
2022-10-26T09:47:36.931Z,101503.22
2022-10-26T09:50:34.500Z,101507.25
2022-10-26T09:53:05.457Z,101507.25
2022-10-26T09:55:35.897Z,101499.13
2022-10-26T09:58:07.440Z,101500.28
2022-10-26T10:00:39.350Z,101493.34
2022-10-26T10:03:20.471Z,101501.09
2022-10-26T10:05:53.213Z,101498.72
2022-10-26T10:08:27.729Z,101492.97
2022-10-26T10:11:11.877Z,101495.34
2022-10-26T10:13:47.120Z,101498.22
2022-10-26T10:16:25.056Z,101498.97
2022-10-26T10:19:00.883Z,101502.63
2022-10-26T10:21:43.934Z,101502.97
2022-10-26T10:24:33.527Z,101497.78
2022-10-26T10:27:13.374Z,101492.13
2022-10-26T10:29:50.098Z,101488.59
2022-10-26T10:32:27.862Z,101483.59
2022-10-26T10:34:59.818Z,101493.03
2022-10-26T10:37:47.425Z,101496.69
2022-10-26T10:40:27.873Z,101491.75
2022-10-26T10:43:14.996Z,101491.00
2022-10-26T10:46:02.690Z,101495.00
2022-10-26T10:48:35.840Z,101493.84
2022-10-26T10:51:18.664Z,101482.44
2022-10-26T10:53:49.303Z,101481.19
2022-10-26T10:56:34.962Z,101484.00
2022-10-26T10:59:17.563Z,101488.81
2022-10-26T11:01:54.378Z,101482.25
2022-10-26T11:04:34.151Z,101477.75
2022-10-26T11:07:08.012Z,101483.69
2022-10-26T11:09:41.962Z,101477.16
2022-10-26T11:12:29.705Z,101471.44
2022-10-26T11:15:06.201Z,101468.06
2022-10-26T11:18:05.221Z,101468.47
2022-10-26T11:20:36.396Z,101464.00
2022-10-26T11:23:13.128Z,101460.69
2022-10-26T11:25:50.331Z,101465.47
2022-10-26T11:28:59.328Z,101456.56
2022-10-26T11:31:35.946Z,101454.91
2022-10-26T11:34:17.520Z,101460.19
2022-10-26T11:36:53.020Z,101464.97
2022-10-26T11:39:41.214Z,101454.84
2022-10-26T11:42:21.216Z,101449.97
2022-10-26T11:45:04.635Z,101454.91
2022-10-26T11:47:48.796Z,101458.59
2022-10-26T11:50:25.894Z,101452.50
2022-10-26T11:52:59.900Z,101456.56
2022-10-26T11:55:34.056Z,101449.28
2022-10-26T11:58:03.186Z,101452.13
2022-10-26T12:00:33.182Z,101459.72
2022-10-26T12:03:23.923Z,101448.03
2022-10-26T12:05:52.187Z,101450.50
2022-10-26T12:08:36.893Z,101455.38
2022-10-26T12:11:34.774Z,101452.50
2022-10-26T12:14:20.337Z,101460.63
2022-10-26T12:16:54.962Z,101457.38
2022-10-26T12:19:35.825Z,101465.81
2022-10-26T12:22:12.176Z,101457.25
2022-10-26T12:24:50.280Z,101456.00
2022-10-26T12:27:52.322Z,101452.81
2022-10-26T12:30:30.053Z,101450.38
2022-10-26T12:33:03.982Z,101445.91
2022-10-26T12:35:39.109Z,101446.75
2022-10-26T12:38:33.634Z,101442.69
2022-10-26T12:41:04.477Z,101434.16
2022-10-26T12:43:33.252Z,101443.13
2022-10-26T12:46:13.026Z,101442.31
2022-10-26T12:48:46.751Z,101438.66
2022-10-26T12:51:25.718Z,101427.00
2022-10-26T12:54:34.617Z,101434.69
2022-10-26T12:57:10.421Z,101433.38
2022-10-26T12:59:45.625Z,101428.59
2022-10-26T13:02:46.150Z,101427.81
2022-10-26T13:05:29.627Z,101435.53
2022-10-26T13:08:07.838Z,101427.81
2022-10-26T13:10:38.557Z,101435.94
2022-10-26T13:13:08.445Z,101435.94
2022-10-26T13:15:41.702Z,101427.47
2022-10-26T13:18:18.309Z,101430.75
2022-10-26T13:20:52.199Z,101428.31
2022-10-26T13:23:32.088Z,101429.53
2022-10-26T13:26:13.185Z,101428.31
2022-10-26T13:28:43.899Z,101420.22
2022-10-26T13:31:20.398Z,101422.22
2022-10-26T13:33:51.804Z,101425.47
2022-10-26T13:36:32.289Z,101421.81
2022-10-26T13:39:06.377Z,101416.91
2022-10-26T13:41:39.667Z,101417.72
2022-10-26T13:44:17.900Z,101418.94
2022-10-26T13:46:49.410Z,101411.28
2022-10-26T13:49:28.063Z,101416.09
2022-10-26T13:52:01.976Z,101420.19
2022-10-26T13:55:00.236Z,101413.28
2022-10-26T13:57:43.865Z,101416.97
2022-10-26T14:00:21.823Z,101428.03
2022-10-26T14:02:58.909Z,101420.03
2022-10-26T14:05:32.703Z,101420.16
2022-10-26T14:08:07.285Z,101418.63
2022-10-26T14:10:43.029Z,101420.66
2022-10-26T14:13:16.823Z,101418.69
2022-10-26T14:15:50.702Z,101423.16
2022-10-26T14:18:35.442Z,101419.94
2022-10-26T14:21:17.051Z,101419.88
2022-10-26T14:23:56.546Z,101422.34
2022-10-26T14:26:39.470Z,101427.22
2022-10-26T14:29:22.122Z,101419.97
2022-10-26T14:31:58.155Z,101419.94
2022-10-26T14:34:33.546Z,101419.59
2022-10-26T14:37:05.075Z,101421.56
2022-10-26T14:39:41.071Z,101420.00
2022-10-26T14:42:28.756Z,101414.75
2022-10-26T14:45:02.797Z,101419.63
2022-10-26T14:47:33.578Z,101428.13
2022-10-26T14:50:09.995Z,101425.72
2022-10-26T14:52:41.121Z,101426.94
2022-10-26T14:55:14.952Z,101431.41
2022-10-26T14:57:48.699Z,101440.72
2022-10-26T15:00:25.648Z,101430.97
2022-10-26T15:02:58.335Z,101435.47
2022-10-26T15:05:35.764Z,101438.59
2022-10-26T15:08:38.919Z,101435.31
2022-10-26T15:11:23.764Z,101443.38
2022-10-26T15:13:53.966Z,101442.53
2022-10-26T15:16:28.446Z,101443.72
2022-10-26T15:19:24.571Z,101443.69
2022-10-26T15:21:53.878Z,101443.69
2022-10-26T15:24:28.051Z,101454.59
2022-10-26T15:26:56.646Z,101448.41
2022-10-26T15:29:35.190Z,101436.22
2022-10-26T15:32:37.637Z,101445.56
2022-10-26T15:35:11.406Z,101442.34
2022-10-26T15:37:40.433Z,101455.78
2022-10-26T15:40:14.441Z,101451.03
2022-10-26T15:42:45.526Z,101452.31
2022-10-26T15:45:29.523Z,101459.69
2022-10-26T15:48:02.416Z,101444.25
2022-10-26T15:50:30.910Z,101454.69
2022-10-26T15:53:15.323Z,101458.69
2022-10-26T15:55:46.980Z,101464.34
2022-10-26T15:58:16.422Z,101461.78
2022-10-26T16:00:48.913Z,101461.31
2022-10-26T16:03:25.236Z,101468.63
2022-10-26T16:06:01.521Z,101471.00
2022-10-26T16:08:32.672Z,101468.50
2022-10-26T16:11:01.119Z,101468.06
2022-10-26T16:13:30.942Z,101470.88
2022-10-26T16:15:59.293Z,101468.88
2022-10-26T16:18:28.176Z,101466.78
2022-10-26T16:20:56.973Z,101476.16
2022-10-26T16:23:25.399Z,101475.75
2022-10-26T16:25:53.663Z,101477.69
2022-10-26T16:28:22.697Z,101480.53
2022-10-26T16:30:50.546Z,101489.00
2022-10-26T16:33:18.701Z,101485.97
2022-10-26T16:35:56.120Z,101487.25
2022-10-26T16:38:31.754Z,101492.50
2022-10-26T16:41:11.614Z,101492.06
2022-10-26T16:43:42.006Z,101499.22
2022-10-26T16:46:19.955Z,101500.56
2022-10-26T16:48:49.583Z,101507.81
2022-10-26T16:51:23.176Z,101501.34
2022-10-26T16:53:55.220Z,101512.66
2022-10-26T16:56:25.467Z,101510.66
2022-10-26T16:58:57.419Z,101519.13
2022-10-26T17:01:25.974Z,101519.47
2022-10-26T17:03:54.253Z,101524.25
2022-10-26T17:06:22.871Z,101522.63
2022-10-26T17:08:50.866Z,101529.09
2022-10-26T17:11:21.142Z,101538.84
2022-10-26T17:13:54.123Z,101533.59
2022-10-26T17:16:24.276Z,101541.34
2022-10-26T17:18:53.431Z,101530.03
2022-10-26T17:21:30.031Z,101534.50
2022-10-26T17:24:01.754Z,101544.66
2022-10-26T17:26:29.875Z,101546.69
2022-10-26T17:28:58.389Z,101547.88
2022-10-26T17:31:26.095Z,101557.22
2022-10-26T17:33:53.997Z,101563.66
2022-10-26T17:36:22.770Z,101564.06
2022-10-26T17:38:52.656Z,101564.50
2022-10-26T17:41:22.316Z,101562.91
2022-10-26T17:43:50.653Z,101570.16
2022-10-26T17:46:24.470Z,101577.88
2022-10-26T17:48:59.611Z,101581.88
2022-10-26T17:51:29.235Z,101585.56
2022-10-26T17:53:59.231Z,101594.88
2022-10-26T17:56:29.234Z,101594.84
2022-10-26T17:58:59.071Z,101599.31
2022-10-26T18:01:27.888Z,101611.41
2022-10-26T18:03:58.352Z,101610.94
2022-10-26T18:06:27.310Z,101609.41
2022-10-26T18:08:59.240Z,101617.50
2022-10-26T18:11:28.549Z,101618.31
2022-10-26T18:13:57.196Z,101618.66
2022-10-26T18:16:26.732Z,101613.41
2022-10-26T18:19:00.529Z,101626.38
2022-10-26T18:21:31.112Z,101632.03
2022-10-26T18:23:59.178Z,101631.22
2022-10-26T18:26:30.979Z,101633.25
2022-10-26T18:29:00.130Z,101630.00
2022-10-26T18:31:29.305Z,101636.84
2022-10-26T18:33:58.454Z,101630.38
2022-10-26T18:36:27.123Z,101638.44
2022-10-26T18:38:54.766Z,101639.34
2022-10-26T18:41:24.631Z,101638.91
2022-10-26T18:43:55.526Z,101640.50
2022-10-26T18:46:27.437Z,101644.94
2022-10-26T18:48:56.156Z,101639.28
2022-10-26T18:51:28.699Z,101643.31
2022-10-26T18:53:57.509Z,101646.56
2022-10-26T18:56:25.733Z,101653.06
2022-10-26T18:58:56.361Z,101656.25
2022-10-26T19:01:26.596Z,101663.25
2022-10-26T19:04:02.357Z,101667.72
2022-10-26T19:06:32.689Z,101658.00
2022-10-26T19:09:00.801Z,101665.66
2022-10-26T19:11:30.389Z,101668.50
2022-10-26T19:13:58.529Z,101672.91
2022-10-26T19:19:17.179Z,101676.97
2022-10-26T19:21:46.724Z,101684.56
2022-10-26T19:24:20.217Z,101692.31
2022-10-26T19:26:48.192Z,101687.44
2022-10-26T19:29:17.384Z,101684.56
2022-10-26T19:31:46.504Z,101694.28
2022-10-26T19:34:18.325Z,101699.94
2022-10-26T19:36:47.286Z,101693.88
2022-10-26T19:39:16.279Z,101695.09
2022-10-26T19:41:44.836Z,101698.38
2022-10-26T19:44:14.333Z,101703.19
2022-10-26T19:46:43.727Z,101704.38
2022-10-26T19:49:12.759Z,101704.00
2022-10-26T19:51:40.490Z,101712.06
2022-10-26T19:54:09.020Z,101711.69
2022-10-26T19:56:37.564Z,101711.59
2022-10-26T19:59:06.238Z,101709.63
2022-10-26T20:01:34.399Z,101717.72
2022-10-26T20:04:02.783Z,101710.47
2022-10-26T20:06:31.045Z,101723.81
2022-10-26T20:08:59.188Z,101728.69
2022-10-26T20:11:26.790Z,101733.91
2022-10-26T20:13:56.321Z,101733.94
2022-10-26T20:16:24.581Z,101739.13
2022-10-26T20:18:52.331Z,101742.00
2022-10-26T20:21:19.810Z,101732.28
2022-10-26T20:23:47.459Z,101740.00
2022-10-26T20:26:18.635Z,101738.72
2022-10-26T20:28:48.951Z,101743.94
2022-10-26T20:31:16.473Z,101750.84
2022-10-26T20:33:51.985Z,101754.88
2022-10-26T20:36:19.948Z,101756.06
2022-10-26T20:38:47.926Z,101750.03
2022-10-26T20:41:15.589Z,101750.38
2022-10-26T20:43:43.552Z,101741.88
2022-10-26T20:46:31.377Z,101762.19
2022-10-26T20:48:59.227Z,101755.72
2022-10-26T20:52:19.023Z,101758.09
2022-10-26T20:54:59.804Z,101767.00
2022-10-26T20:57:31.745Z,101764.53
2022-10-26T21:00:09.124Z,101779.50
2022-10-26T21:02:36.854Z,101771.75
2022-10-26T21:05:04.892Z,101781.16
2022-10-26T21:07:32.468Z,101784.03
2022-10-26T21:09:59.971Z,101779.28
2022-10-26T21:12:27.437Z,101789.13
2022-10-26T21:14:54.828Z,101789.28
2022-10-26T21:17:22.732Z,101791.00
2022-10-26T21:19:50.069Z,101786.63
2022-10-26T21:22:17.508Z,101789.56
2022-10-26T21:24:49.704Z,101789.97
2022-10-26T21:27:19.114Z,101800.13
2022-10-26T21:29:46.652Z,101799.72
2022-10-26T21:32:14.095Z,101808.69
2022-10-26T21:34:41.581Z,101810.34
2022-10-26T21:37:09.046Z,101807.13
2022-10-26T21:39:36.458Z,101816.00
2022-10-26T21:42:03.996Z,101807.56
2022-10-26T21:44:46.613Z,101813.22
2022-10-26T21:47:13.940Z,101808.41
2022-10-26T21:52:14.066Z,101811.56
2022-10-26T21:54:41.483Z,101813.00
2022-10-26T21:57:08.948Z,101815.34
2022-10-26T21:59:36.827Z,101818.94
2022-10-26T22:02:04.510Z,101815.50
2022-10-26T22:04:32.895Z,101821.53
2022-10-26T22:07:00.503Z,101819.00
2022-10-26T22:09:27.742Z,101814.53
2022-10-26T22:11:57.651Z,101811.22
2022-10-26T22:14:25.239Z,101814.00
2022-10-26T22:16:52.708Z,101811.53
2022-10-26T22:19:20.183Z,101813.53
2022-10-26T22:21:47.782Z,101810.63
2022-10-26T22:24:15.358Z,101813.44
2022-10-26T22:26:42.724Z,101810.16
2022-10-26T22:29:10.233Z,101806.09
2022-10-26T22:31:43.028Z,101810.16
2022-10-26T22:34:16.018Z,101808.19
2022-10-26T22:36:43.977Z,101808.59
2022-10-26T22:39:11.442Z,101809.41
2022-10-26T22:41:38.970Z,101815.00
2022-10-26T22:44:06.349Z,101807.69
2022-10-26T22:46:33.958Z,101818.59
2022-10-26T22:49:02.422Z,101809.31
2022-10-26T22:51:34.397Z,101808.88
2022-10-26T22:54:03.319Z,101812.53
2022-10-26T22:56:33.237Z,101813.22
2022-10-26T22:59:00.555Z,101813.28
2022-10-26T23:01:33.936Z,101813.22
2022-10-26T23:04:01.418Z,101816.94
2022-10-26T23:06:30.812Z,101816.47
2022-10-26T23:08:58.394Z,101824.97
2022-10-26T23:11:27.982Z,101818.91
2022-10-26T23:14:02.526Z,101818.06
2022-10-26T23:16:30.942Z,101815.63
2022-10-26T23:18:59.693Z,101823.25
2022-10-26T23:21:29.032Z,101815.16
2022-10-26T23:23:57.219Z,101818.50
2022-10-26T23:26:24.918Z,101813.59
2022-10-26T23:28:52.318Z,101809.94
2022-10-26T23:31:22.338Z,101809.94
2022-10-26T23:33:51.313Z,101814.34
2022-10-26T23:36:19.703Z,101819.66
2022-10-26T23:38:47.730Z,101816.00
2022-10-26T23:41:17.330Z,101815.16
2022-10-26T23:43:44.938Z,101820.00
2022-10-26T23:46:15.452Z,101820.00
2022-10-26T23:48:42.927Z,101816.00
2022-10-26T23:51:10.392Z,101825.25
2022-10-26T23:53:37.844Z,101826.06
2022-10-26T23:56:05.614Z,101822.03
2022-10-26T23:58:33.222Z,101823.66
